sensor_id;sensor_type;location;lat;lon;timestamp;P1;durP1;ratioP1;P2;durP2;ratioP2
32407;SDS011;18869;55.970;37.502;2024-02-26T00:02:23;8.70;;;7.80;;
32407;SDS011;18869;55.970;37.502;2024-02-26T00:04:50;10.13;;;7.67;;
32407;SDS011;18869;55.970;37.502;2024-02-26T00:07:19;8.83;;;7.27;;
32407;SDS011;18869;55.970;37.502;2024-02-26T00:09:47;10.43;;;8.53;;
32407;SDS011;18869;55.970;37.502;2024-02-26T00:12:16;11.17;;;7.87;;
32407;SDS011;18869;55.970;37.502;2024-02-26T00:14:43;10.23;;;7.50;;
32407;SDS011;18869;55.970;37.502;2024-02-26T00:17:13;9.40;;;6.97;;
32407;SDS011;18869;55.970;37.502;2024-02-26T00:19:41;8.20;;;6.73;;
32407;SDS011;18869;55.970;37.502;2024-02-26T00:22:08;10.77;;;7.37;;
32407;SDS011;18869;55.970;37.502;2024-02-26T00:24:35;9.47;;;7.20;;
32407;SDS011;18869;55.970;37.502;2024-02-26T00:27:02;10.07;;;7.07;;
32407;SDS011;18869;55.970;37.502;2024-02-26T00:29:29;8.90;;;6.97;;
32407;SDS011;18869;55.970;37.502;2024-02-26T00:31:56;8.00;;;7.20;;
32407;SDS011;18869;55.970;37.502;2024-02-26T00:34:23;7.50;;;6.80;;
32407;SDS011;18869;55.970;37.502;2024-02-26T00:36:50;7.60;;;6.80;;
32407;SDS011;18869;55.970;37.502;2024-02-26T00:39:16;8.27;;;6.87;;
32407;SDS011;18869;55.970;37.502;2024-02-26T00:41:44;9.80;;;6.47;;
32407;SDS011;18869;55.970;37.502;2024-02-26T00:44:11;7.43;;;6.73;;
32407;SDS011;18869;55.970;37.502;2024-02-26T00:46:37;8.00;;;6.87;;
32407;SDS011;18869;55.970;37.502;2024-02-26T00:49:05;8.17;;;5.97;;
32407;SDS011;18869;55.970;37.502;2024-02-26T00:51:32;6.77;;;6.17;;
32407;SDS011;18869;55.970;37.502;2024-02-26T00:53:58;8.00;;;6.50;;
32407;SDS011;18869;55.970;37.502;2024-02-26T00:56:25;8.97;;;6.33;;
32407;SDS011;18869;55.970;37.502;2024-02-26T00:58:53;9.60;;;6.90;;
32407;SDS011;18869;55.970;37.502;2024-02-26T01:01:20;6.60;;;6.00;;
32407;SDS011;18869;55.970;37.502;2024-02-26T01:06:39;6.80;;;5.77;;
32407;SDS011;18869;55.970;37.502;2024-02-26T01:09:06;7.33;;;6.23;;
32407;SDS011;18869;55.970;37.502;2024-02-26T01:11:33;6.57;;;5.97;;
32407;SDS011;18869;55.970;37.502;2024-02-26T01:14:01;6.77;;;6.17;;
32407;SDS011;18869;55.970;37.502;2024-02-26T01:16:29;8.80;;;6.40;;
32407;SDS011;18869;55.970;37.502;2024-02-26T01:18:57;6.97;;;6.00;;
32407;SDS011;18869;55.970;37.502;2024-02-26T01:21:24;7.70;;;6.40;;
32407;SDS011;18869;55.970;37.502;2024-02-26T01:23:52;7.43;;;6.17;;
32407;SDS011;18869;55.970;37.502;2024-02-26T01:26:19;9.03;;;6.37;;
32407;SDS011;18869;55.970;37.502;2024-02-26T01:28:47;9.37;;;6.40;;
32407;SDS011;18869;55.970;37.502;2024-02-26T01:31:15;14.23;;;7.50;;
32407;SDS011;18869;55.970;37.502;2024-02-26T01:33:42;6.67;;;5.73;;
32407;SDS011;18869;55.970;37.502;2024-02-26T01:36:09;6.57;;;5.97;;
32407;SDS011;18869;55.970;37.502;2024-02-26T01:38:36;6.87;;;6.17;;
32407;SDS011;18869;55.970;37.502;2024-02-26T01:41:02;8.63;;;6.20;;
32407;SDS011;18869;55.970;37.502;2024-02-26T01:43:29;8.33;;;6.47;;
32407;SDS011;18869;55.970;37.502;2024-02-26T01:45:56;8.17;;;6.27;;
32407;SDS011;18869;55.970;37.502;2024-02-26T01:48:24;8.03;;;6.57;;
32407;SDS011;18869;55.970;37.502;2024-02-26T01:50:51;6.67;;;6.07;;
32407;SDS011;18869;55.970;37.502;2024-02-26T01:53:18;8.07;;;5.80;;
32407;SDS011;18869;55.970;37.502;2024-02-26T01:55:45;6.67;;;5.97;;
32407;SDS011;18869;55.970;37.502;2024-02-26T01:58:12;8.53;;;6.57;;
32407;SDS011;18869;55.970;37.502;2024-02-26T02:00:39;6.50;;;5.83;;
32407;SDS011;18869;55.970;37.502;2024-02-26T02:03:06;6.47;;;5.80;;
32407;SDS011;18869;55.970;37.502;2024-02-26T02:05:34;6.33;;;5.73;;
32407;SDS011;18869;55.970;37.502;2024-02-26T02:08:00;7.63;;;6.83;;
32407;SDS011;18869;55.970;37.502;2024-02-26T02:10:29;8.13;;;5.70;;
32407;SDS011;18869;55.970;37.502;2024-02-26T02:12:56;6.87;;;5.93;;
32407;SDS011;18869;55.970;37.502;2024-02-26T02:15:23;6.27;;;5.67;;
32407;SDS011;18869;55.970;37.502;2024-02-26T02:17:50;7.40;;;5.33;;
32407;SDS011;18869;55.970;37.502;2024-02-26T02:20:17;6.10;;;5.50;;
32407;SDS011;18869;55.970;37.502;2024-02-26T02:22:45;6.73;;;5.60;;
32407;SDS011;18869;55.970;37.502;2024-02-26T02:25:13;9.10;;;6.50;;
32407;SDS011;18869;55.970;37.502;2024-02-26T02:27:40;5.93;;;5.43;;
32407;SDS011;18869;55.970;37.502;2024-02-26T02:30:07;8.70;;;6.17;;
32407;SDS011;18869;55.970;37.502;2024-02-26T02:32:34;7.17;;;5.53;;
32407;SDS011;18869;55.970;37.502;2024-02-26T02:35:02;9.50;;;6.17;;
32407;SDS011;18869;55.970;37.502;2024-02-26T02:37:29;6.30;;;5.70;;
32407;SDS011;18869;55.970;37.502;2024-02-26T02:39:57;7.37;;;5.80;;
32407;SDS011;18869;55.970;37.502;2024-02-26T02:42:23;7.07;;;5.50;;
32407;SDS011;18869;55.970;37.502;2024-02-26T02:44:50;7.80;;;6.33;;
32407;SDS011;18869;55.970;37.502;2024-02-26T02:47:17;6.53;;;6.00;;
32407;SDS011;18869;55.970;37.502;2024-02-26T02:49:44;5.87;;;5.23;;
32407;SDS011;18869;55.970;37.502;2024-02-26T02:52:11;6.40;;;5.80;;
32407;SDS011;18869;55.970;37.502;2024-02-26T02:54:38;7.17;;;5.67;;
32407;SDS011;18869;55.970;37.502;2024-02-26T02:57:07;7.17;;;5.87;;
32407;SDS011;18869;55.970;37.502;2024-02-26T02:59:35;6.13;;;5.33;;
32407;SDS011;18869;55.970;37.502;2024-02-26T03:02:02;5.67;;;5.17;;
32407;SDS011;18869;55.970;37.502;2024-02-26T03:04:28;5.87;;;5.37;;
32407;SDS011;18869;55.970;37.502;2024-02-26T03:06:55;7.20;;;5.70;;
32407;SDS011;18869;55.970;37.502;2024-02-26T03:09:23;7.60;;;5.53;;
32407;SDS011;18869;55.970;37.502;2024-02-26T03:11:50;7.50;;;5.27;;
32407;SDS011;18869;55.970;37.502;2024-02-26T03:14:17;5.80;;;5.30;;
32407;SDS011;18869;55.970;37.502;2024-02-26T03:16:44;5.90;;;5.50;;
32407;SDS011;18869;55.970;37.502;2024-02-26T03:19:13;8.60;;;5.37;;
32407;SDS011;18869;55.970;37.502;2024-02-26T03:21:40;6.63;;;5.73;;
32407;SDS011;18869;55.970;37.502;2024-02-26T03:24:07;6.63;;;5.93;;
32407;SDS011;18869;55.970;37.502;2024-02-26T03:26:36;6.77;;;6.17;;
32407;SDS011;18869;55.970;37.502;2024-02-26T03:29:02;7.53;;;5.60;;
32407;SDS011;18869;55.970;37.502;2024-02-26T03:31:30;6.43;;;5.10;;
32407;SDS011;18869;55.970;37.502;2024-02-26T03:33:57;7.87;;;5.70;;
32407;SDS011;18869;55.970;37.502;2024-02-26T03:36:23;7.90;;;5.80;;
32407;SDS011;18869;55.970;37.502;2024-02-26T03:38:50;5.73;;;5.10;;
32407;SDS011;18869;55.970;37.502;2024-02-26T03:41:17;6.07;;;5.43;;
32407;SDS011;18869;55.970;37.502;2024-02-26T03:43:43;7.93;;;5.53;;
32407;SDS011;18869;55.970;37.502;2024-02-26T03:46:11;8.43;;;5.57;;
32407;SDS011;18869;55.970;37.502;2024-02-26T03:48:40;5.57;;;5.00;;
32407;SDS011;18869;55.970;37.502;2024-02-26T03:51:08;10.87;;;5.93;;
32407;SDS011;18869;55.970;37.502;2024-02-26T03:53:35;6.97;;;5.80;;
32407;SDS011;18869;55.970;37.502;2024-02-26T03:56:03;6.20;;;5.60;;
32407;SDS011;18869;55.970;37.502;2024-02-26T03:58:30;8.07;;;5.30;;
32407;SDS011;18869;55.970;37.502;2024-02-26T04:00:57;6.27;;;5.27;;
32407;SDS011;18869;55.970;37.502;2024-02-26T04:03:25;5.70;;;5.30;;
32407;SDS011;18869;55.970;37.502;2024-02-26T04:05:52;5.47;;;4.97;;
32407;SDS011;18869;55.970;37.502;2024-02-26T04:08:19;6.17;;;5.20;;
32407;SDS011;18869;55.970;37.502;2024-02-26T04:10:46;7.03;;;6.33;;
32407;SDS011;18869;55.970;37.502;2024-02-26T04:13:13;6.77;;;5.77;;
32407;SDS011;18869;55.970;37.502;2024-02-26T04:15:40;6.37;;;5.20;;
32407;SDS011;18869;55.970;37.502;2024-02-26T04:18:07;6.43;;;5.77;;
32407;SDS011;18869;55.970;37.502;2024-02-26T04:20:34;6.63;;;6.03;;
32407;SDS011;18869;55.970;37.502;2024-02-26T04:23:02;7.90;;;5.40;;
32407;SDS011;18869;55.970;37.502;2024-02-26T04:25:29;7.30;;;5.80;;
32407;SDS011;18869;55.970;37.502;2024-02-26T04:27:56;6.63;;;5.70;;
32407;SDS011;18869;55.970;37.502;2024-02-26T04:30:23;8.97;;;6.50;;
32407;SDS011;18869;55.970;37.502;2024-02-26T04:32:50;7.57;;;5.63;;
32407;SDS011;18869;55.970;37.502;2024-02-26T04:35:16;6.10;;;5.53;;
32407;SDS011;18869;55.970;37.502;2024-02-26T04:37:43;9.67;;;5.03;;
32407;SDS011;18869;55.970;37.502;2024-02-26T04:40:11;8.17;;;5.53;;
32407;SDS011;18869;55.970;37.502;2024-02-26T04:42:38;6.50;;;5.87;;
32407;SDS011;18869;55.970;37.502;2024-02-26T04:45:05;8.07;;;5.50;;
32407;SDS011;18869;55.970;37.502;2024-02-26T04:47:33;7.00;;;6.30;;
32407;SDS011;18869;55.970;37.502;2024-02-26T04:50:00;7.70;;;6.57;;
32407;SDS011;18869;55.970;37.502;2024-02-26T04:52:27;5.93;;;5.20;;
32407;SDS011;18869;55.970;37.502;2024-02-26T04:54:54;7.03;;;5.83;;
32407;SDS011;18869;55.970;37.502;2024-02-26T04:57:21;5.67;;;5.10;;
32407;SDS011;18869;55.970;37.502;2024-02-26T04:59:48;7.57;;;5.60;;
32407;SDS011;18869;55.970;37.502;2024-02-26T05:02:15;8.03;;;5.70;;
32407;SDS011;18869;55.970;37.502;2024-02-26T05:04:42;7.20;;;6.03;;
32407;SDS011;18869;55.970;37.502;2024-02-26T05:07:09;10.67;;;5.87;;
32407;SDS011;18869;55.970;37.502;2024-02-26T05:09:36;6.10;;;5.53;;
32407;SDS011;18869;55.970;37.502;2024-02-26T05:12:02;7.33;;;5.20;;
32407;SDS011;18869;55.970;37.502;2024-02-26T05:14:30;7.63;;;6.87;;
32407;SDS011;18869;55.970;37.502;2024-02-26T05:16:57;5.97;;;5.47;;
32407;SDS011;18869;55.970;37.502;2024-02-26T05:19:24;6.10;;;5.60;;
32407;SDS011;18869;55.970;37.502;2024-02-26T05:21:51;6.90;;;6.20;;
32407;SDS011;18869;55.970;37.502;2024-02-26T05:24:18;7.87;;;6.37;;
32407;SDS011;18869;55.970;37.502;2024-02-26T05:26:48;8.27;;;5.90;;
32407;SDS011;18869;55.970;37.502;2024-02-26T05:29:15;8.23;;;5.80;;
32407;SDS011;18869;55.970;37.502;2024-02-26T05:31:43;6.67;;;6.07;;
32407;SDS011;18869;55.970;37.502;2024-02-26T05:34:09;7.30;;;5.90;;
32407;SDS011;18869;55.970;37.502;2024-02-26T05:36:36;7.93;;;7.13;;
32407;SDS011;18869;55.970;37.502;2024-02-26T05:39:04;6.53;;;5.80;;
32407;SDS011;18869;55.970;37.502;2024-02-26T05:41:31;7.17;;;6.47;;
32407;SDS011;18869;55.970;37.502;2024-02-26T05:43:58;8.07;;;6.27;;
32407;SDS011;18869;55.970;37.502;2024-02-26T05:46:25;8.57;;;5.60;;
32407;SDS011;18869;55.970;37.502;2024-02-26T05:48:53;8.80;;;6.10;;
32407;SDS011;18869;55.970;37.502;2024-02-26T05:51:20;10.43;;;6.50;;
32407;SDS011;18869;55.970;37.502;2024-02-26T05:53:47;8.47;;;6.17;;
32407;SDS011;18869;55.970;37.502;2024-02-26T05:56:20;8.13;;;6.33;;
32407;SDS011;18869;55.970;37.502;2024-02-26T05:58:47;9.40;;;7.00;;
32407;SDS011;18869;55.970;37.502;2024-02-26T06:01:15;8.63;;;7.20;;
32407;SDS011;18869;55.970;37.502;2024-02-26T06:03:42;10.07;;;7.23;;
32407;SDS011;18869;55.970;37.502;2024-02-26T06:06:10;18.70;;;6.97;;
32407;SDS011;18869;55.970;37.502;2024-02-26T06:08:37;10.43;;;6.43;;
32407;SDS011;18869;55.970;37.502;2024-02-26T06:11:05;8.27;;;5.80;;
32407;SDS011;18869;55.970;37.502;2024-02-26T06:13:33;9.53;;;6.90;;
32407;SDS011;18869;55.970;37.502;2024-02-26T06:16:00;10.93;;;7.70;;
32407;SDS011;18869;55.970;37.502;2024-02-26T06:18:27;8.60;;;6.63;;
32407;SDS011;18869;55.970;37.502;2024-02-26T06:20:54;11.13;;;7.30;;
32407;SDS011;18869;55.970;37.502;2024-02-26T06:23:21;7.23;;;6.53;;
32407;SDS011;18869;55.970;37.502;2024-02-26T06:25:49;7.87;;;6.27;;
32407;SDS011;18869;55.970;37.502;2024-02-26T06:28:15;8.10;;;6.30;;
32407;SDS011;18869;55.970;37.502;2024-02-26T06:30:42;10.07;;;6.93;;
32407;SDS011;18869;55.970;37.502;2024-02-26T06:33:09;11.37;;;6.57;;
32407;SDS011;18869;55.970;37.502;2024-02-26T06:35:36;7.50;;;6.40;;
32407;SDS011;18869;55.970;37.502;2024-02-26T06:38:03;7.57;;;6.53;;
32407;SDS011;18869;55.970;37.502;2024-02-26T06:40:31;8.60;;;6.27;;
32407;SDS011;18869;55.970;37.502;2024-02-26T06:42:58;9.27;;;6.80;;
32407;SDS011;18869;55.970;37.502;2024-02-26T06:45:25;11.20;;;6.83;;
32407;SDS011;18869;55.970;37.502;2024-02-26T06:47:52;7.50;;;6.60;;
32407;SDS011;18869;55.970;37.502;2024-02-26T06:50:18;9.77;;;7.57;;
32407;SDS011;18869;55.970;37.502;2024-02-26T06:52:45;9.20;;;6.50;;
32407;SDS011;18869;55.970;37.502;2024-02-26T06:55:13;6.67;;;5.87;;
32407;SDS011;18869;55.970;37.502;2024-02-26T06:57:40;12.70;;;6.73;;
32407;SDS011;18869;55.970;37.502;2024-02-26T07:00:07;9.70;;;7.13;;
32407;SDS011;18869;55.970;37.502;2024-02-26T07:02:40;7.50;;;6.57;;
32407;SDS011;18869;55.970;37.502;2024-02-26T07:05:07;10.67;;;6.97;;
32407;SDS011;18869;55.970;37.502;2024-02-26T07:07:34;10.20;;;7.27;;
32407;SDS011;18869;55.970;37.502;2024-02-26T07:10:01;11.53;;;7.27;;
32407;SDS011;18869;55.970;37.502;2024-02-26T07:12:30;9.00;;;7.20;;
32407;SDS011;18869;55.970;37.502;2024-02-26T07:14:58;7.60;;;6.13;;
32407;SDS011;18869;55.970;37.502;2024-02-26T07:17:25;10.57;;;7.37;;
32407;SDS011;18869;55.970;37.502;2024-02-26T07:19:51;8.73;;;7.10;;
32407;SDS011;18869;55.970;37.502;2024-02-26T07:22:18;10.57;;;6.93;;
32407;SDS011;18869;55.970;37.502;2024-02-26T07:24:45;10.67;;;6.50;;
32407;SDS011;18869;55.970;37.502;2024-02-26T07:27:12;12.73;;;6.47;;
32407;SDS011;18869;55.970;37.502;2024-02-26T07:29:39;13.73;;;7.13;;
32407;SDS011;18869;55.970;37.502;2024-02-26T07:32:07;9.97;;;7.20;;
32407;SDS011;18869;55.970;37.502;2024-02-26T07:34:33;7.63;;;6.83;;
32407;SDS011;18869;55.970;37.502;2024-02-26T07:37:01;8.70;;;6.53;;
32407;SDS011;18869;55.970;37.502;2024-02-26T07:39:29;13.20;;;7.17;;
32407;SDS011;18869;55.970;37.502;2024-02-26T07:41:55;10.93;;;7.60;;
32407;SDS011;18869;55.970;37.502;2024-02-26T07:44:22;10.90;;;6.73;;
32407;SDS011;18869;55.970;37.502;2024-02-26T07:46:49;10.13;;;7.33;;
32407;SDS011;18869;55.970;37.502;2024-02-26T07:49:16;11.97;;;6.93;;
32407;SDS011;18869;55.970;37.502;2024-02-26T07:51:43;8.13;;;6.33;;
32407;SDS011;18869;55.970;37.502;2024-02-26T07:54:10;8.33;;;7.43;;
32407;SDS011;18869;55.970;37.502;2024-02-26T07:56:37;9.33;;;5.93;;
32407;SDS011;18869;55.970;37.502;2024-02-26T07:59:03;11.63;;;7.37;;
32407;SDS011;18869;55.970;37.502;2024-02-26T08:01:31;10.60;;;6.93;;
32407;SDS011;18869;55.970;37.502;2024-02-26T08:03:58;9.57;;;6.90;;
32407;SDS011;18869;55.970;37.502;2024-02-26T08:06:25;9.30;;;7.10;;
32407;SDS011;18869;55.970;37.502;2024-02-26T08:08:52;9.70;;;7.40;;
32407;SDS011;18869;55.970;37.502;2024-02-26T08:11:19;10.63;;;6.37;;
32407;SDS011;18869;55.970;37.502;2024-02-26T08:13:46;8.70;;;6.53;;
32407;SDS011;18869;55.970;37.502;2024-02-26T08:16:13;9.67;;;7.53;;
32407;SDS011;18869;55.970;37.502;2024-02-26T08:18:40;12.47;;;7.47;;
32407;SDS011;18869;55.970;37.502;2024-02-26T08:21:07;14.43;;;7.57;;
32407;SDS011;18869;55.970;37.502;2024-02-26T08:23:35;10.10;;;6.53;;
32407;SDS011;18869;55.970;37.502;2024-02-26T08:26:02;10.57;;;7.60;;
32407;SDS011;18869;55.970;37.502;2024-02-26T08:28:32;13.97;;;7.90;;
32407;SDS011;18869;55.970;37.502;2024-02-26T08:30:59;9.57;;;6.47;;
32407;SDS011;18869;55.970;37.502;2024-02-26T08:33:26;8.30;;;6.77;;
32407;SDS011;18869;55.970;37.502;2024-02-26T08:35:53;10.57;;;7.20;;
32407;SDS011;18869;55.970;37.502;2024-02-26T08:38:19;11.87;;;7.33;;
32407;SDS011;18869;55.970;37.502;2024-02-26T08:40:47;10.80;;;7.20;;
32407;SDS011;18869;55.970;37.502;2024-02-26T08:43:14;11.57;;;7.90;;
32407;SDS011;18869;55.970;37.502;2024-02-26T08:45:41;10.87;;;7.13;;
32407;SDS011;18869;55.970;37.502;2024-02-26T08:48:08;10.77;;;7.03;;
32407;SDS011;18869;55.970;37.502;2024-02-26T08:50:34;9.57;;;7.50;;
32407;SDS011;18869;55.970;37.502;2024-02-26T08:53:01;8.47;;;7.50;;
32407;SDS011;18869;55.970;37.502;2024-02-26T08:55:30;10.13;;;6.43;;
32407;SDS011;18869;55.970;37.502;2024-02-26T08:57:57;7.77;;;6.13;;
32407;SDS011;18869;55.970;37.502;2024-02-26T09:00:24;9.10;;;6.70;;
32407;SDS011;18869;55.970;37.502;2024-02-26T09:02:51;7.83;;;6.43;;
32407;SDS011;18869;55.970;37.502;2024-02-26T09:05:17;8.37;;;6.80;;
32407;SDS011;18869;55.970;37.502;2024-02-26T09:07:44;8.50;;;6.40;;
32407;SDS011;18869;55.970;37.502;2024-02-26T09:10:12;11.40;;;6.77;;
32407;SDS011;18869;55.970;37.502;2024-02-26T09:12:39;8.53;;;6.97;;
32407;SDS011;18869;55.970;37.502;2024-02-26T09:15:07;10.43;;;6.47;;
32407;SDS011;18869;55.970;37.502;2024-02-26T09:17:34;8.33;;;6.60;;
32407;SDS011;18869;55.970;37.502;2024-02-26T09:20:01;12.87;;;6.93;;
32407;SDS011;18869;55.970;37.502;2024-02-26T09:22:28;12.43;;;6.87;;
32407;SDS011;18869;55.970;37.502;2024-02-26T09:24:55;7.60;;;6.20;;
32407;SDS011;18869;55.970;37.502;2024-02-26T09:27:22;10.70;;;7.33;;
32407;SDS011;18869;55.970;37.502;2024-02-26T09:29:49;9.40;;;7.00;;
32407;SDS011;18869;55.970;37.502;2024-02-26T09:32:17;7.67;;;5.70;;
32407;SDS011;18869;55.970;37.502;2024-02-26T09:34:44;10.00;;;6.73;;
32407;SDS011;18869;55.970;37.502;2024-02-26T09:37:11;9.97;;;6.57;;
32407;SDS011;18869;55.970;37.502;2024-02-26T09:39:38;8.47;;;6.63;;
32407;SDS011;18869;55.970;37.502;2024-02-26T09:42:05;12.97;;;7.40;;
32407;SDS011;18869;55.970;37.502;2024-02-26T09:44:35;8.73;;;5.97;;
32407;SDS011;18869;55.970;37.502;2024-02-26T09:47:04;10.47;;;6.17;;
32407;SDS011;18869;55.970;37.502;2024-02-26T09:49:32;11.87;;;6.23;;
32407;SDS011;18869;55.970;37.502;2024-02-26T09:51:59;10.33;;;6.27;;
32407;SDS011;18869;55.970;37.502;2024-02-26T09:54:28;8.90;;;5.60;;
32407;SDS011;18869;55.970;37.502;2024-02-26T09:56:57;11.60;;;6.53;;
32407;SDS011;18869;55.970;37.502;2024-02-26T09:59:26;9.77;;;5.63;;
32407;SDS011;18869;55.970;37.502;2024-02-26T10:01:53;8.43;;;6.37;;
32407;SDS011;18869;55.970;37.502;2024-02-26T10:04:21;9.40;;;6.77;;
32407;SDS011;18869;55.970;37.502;2024-02-26T10:06:48;10.70;;;6.90;;
32407;SDS011;18869;55.970;37.502;2024-02-26T10:09:15;9.77;;;5.77;;
32407;SDS011;18869;55.970;37.502;2024-02-26T10:11:42;9.30;;;5.87;;
32407;SDS011;18869;55.970;37.502;2024-02-26T10:14:10;10.13;;;5.97;;
32407;SDS011;18869;55.970;37.502;2024-02-26T10:16:37;8.70;;;6.57;;
32407;SDS011;18869;55.970;37.502;2024-02-26T10:19:05;12.57;;;6.40;;
32407;SDS011;18869;55.970;37.502;2024-02-26T10:21:32;10.73;;;5.60;;
32407;SDS011;18869;55.970;37.502;2024-02-26T10:23:59;7.90;;;5.70;;
32407;SDS011;18869;55.970;37.502;2024-02-26T10:26:26;9.23;;;6.67;;
32407;SDS011;18869;55.970;37.502;2024-02-26T10:28:53;10.63;;;6.63;;
32407;SDS011;18869;55.970;37.502;2024-02-26T10:31:19;10.50;;;6.20;;
32407;SDS011;18869;55.970;37.502;2024-02-26T10:33:47;9.17;;;6.20;;
32407;SDS011;18869;55.970;37.502;2024-02-26T10:36:13;7.80;;;6.10;;
32407;SDS011;18869;55.970;37.502;2024-02-26T10:38:41;11.13;;;6.07;;
32407;SDS011;18869;55.970;37.502;2024-02-26T10:41:13;8.00;;;5.87;;
32407;SDS011;18869;55.970;37.502;2024-02-26T10:43:40;9.63;;;5.73;;
32407;SDS011;18869;55.970;37.502;2024-02-26T10:46:08;8.70;;;6.17;;
32407;SDS011;18869;55.970;37.502;2024-02-26T10:48:35;6.93;;;5.47;;
32407;SDS011;18869;55.970;37.502;2024-02-26T10:51:03;12.47;;;6.50;;
32407;SDS011;18869;55.970;37.502;2024-02-26T10:53:30;10.97;;;6.63;;
32407;SDS011;18869;55.970;37.502;2024-02-26T10:55:58;8.77;;;5.20;;
32407;SDS011;18869;55.970;37.502;2024-02-26T10:58:29;10.20;;;6.60;;
32407;SDS011;18869;55.970;37.502;2024-02-26T11:00:58;7.23;;;5.60;;
32407;SDS011;18869;55.970;37.502;2024-02-26T11:03:25;8.73;;;5.50;;
32407;SDS011;18869;55.970;37.502;2024-02-26T11:05:52;18.20;;;5.87;;
32407;SDS011;18869;55.970;37.502;2024-02-26T11:08:20;7.87;;;5.30;;
32407;SDS011;18869;55.970;37.502;2024-02-26T11:10:48;11.27;;;5.97;;
32407;SDS011;18869;55.970;37.502;2024-02-26T11:13:15;9.90;;;6.30;;
32407;SDS011;18869;55.970;37.502;2024-02-26T11:15:46;13.50;;;6.23;;
32407;SDS011;18869;55.970;37.502;2024-02-26T11:18:13;11.17;;;6.10;;
32407;SDS011;18869;55.970;37.502;2024-02-26T11:20:41;9.37;;;6.13;;
32407;SDS011;18869;55.970;37.502;2024-02-26T11:23:08;7.87;;;5.70;;
32407;SDS011;18869;55.970;37.502;2024-02-26T11:25:35;9.33;;;6.00;;
32407;SDS011;18869;55.970;37.502;2024-02-26T11:28:03;7.00;;;5.60;;
32407;SDS011;18869;55.970;37.502;2024-02-26T11:30:32;9.43;;;6.73;;
32407;SDS011;18869;55.970;37.502;2024-02-26T11:33:01;9.20;;;6.10;;
32407;SDS011;18869;55.970;37.502;2024-02-26T11:35:29;14.23;;;6.63;;
32407;SDS011;18869;55.970;37.502;2024-02-26T11:37:56;11.13;;;6.63;;
32407;SDS011;18869;55.970;37.502;2024-02-26T11:40:24;8.13;;;6.43;;
32407;SDS011;18869;55.970;37.502;2024-02-26T11:42:51;10.87;;;6.27;;
32407;SDS011;18869;55.970;37.502;2024-02-26T11:48:23;11.77;;;6.43;;
32407;SDS011;18869;55.970;37.502;2024-02-26T11:50:52;11.47;;;6.30;;
32407;SDS011;18869;55.970;37.502;2024-02-26T11:53:20;14.60;;;6.60;;
32407;SDS011;18869;55.970;37.502;2024-02-26T11:58:53;11.37;;;6.17;;
32407;SDS011;18869;55.970;37.502;2024-02-26T12:01:40;10.63;;;6.40;;
32407;SDS011;18869;55.970;37.502;2024-02-26T12:04:12;10.43;;;7.20;;
32407;SDS011;18869;55.970;37.502;2024-02-26T12:06:53;12.40;;;6.17;;
32407;SDS011;18869;55.970;37.502;2024-02-26T12:09:34;8.70;;;6.07;;
32407;SDS011;18869;55.970;37.502;2024-02-26T12:12:04;10.57;;;6.13;;
32407;SDS011;18869;55.970;37.502;2024-02-26T12:14:33;13.37;;;7.40;;
32407;SDS011;18869;55.970;37.502;2024-02-26T12:17:00;11.13;;;7.37;;
32407;SDS011;18869;55.970;37.502;2024-02-26T12:19:28;12.57;;;7.57;;
32407;SDS011;18869;55.970;37.502;2024-02-26T12:21:57;15.80;;;7.70;;
32407;SDS011;18869;55.970;37.502;2024-02-26T12:24:24;11.47;;;7.27;;
32407;SDS011;18869;55.970;37.502;2024-02-26T12:26:50;18.17;;;7.60;;
32407;SDS011;18869;55.970;37.502;2024-02-26T12:29:19;14.00;;;8.27;;
32407;SDS011;18869;55.970;37.502;2024-02-26T12:31:46;13.27;;;7.43;;
32407;SDS011;18869;55.970;37.502;2024-02-26T12:34:13;13.07;;;7.60;;
32407;SDS011;18869;55.970;37.502;2024-02-26T12:36:43;11.53;;;7.47;;
32407;SDS011;18869;55.970;37.502;2024-02-26T12:39:10;9.30;;;7.60;;
32407;SDS011;18869;55.970;37.502;2024-02-26T12:41:37;12.13;;;7.07;;
32407;SDS011;18869;55.970;37.502;2024-02-26T12:44:05;13.63;;;8.67;;
32407;SDS011;18869;55.970;37.502;2024-02-26T12:46:32;10.43;;;8.27;;
32407;SDS011;18869;55.970;37.502;2024-02-26T12:48:59;18.20;;;8.50;;
32407;SDS011;18869;55.970;37.502;2024-02-26T12:51:26;17.17;;;9.00;;
32407;SDS011;18869;55.970;37.502;2024-02-26T12:53:55;13.87;;;7.80;;
32407;SDS011;18869;55.970;37.502;2024-02-26T12:56:22;17.93;;;8.07;;
32407;SDS011;18869;55.970;37.502;2024-02-26T12:58:50;13.80;;;8.10;;
32407;SDS011;18869;55.970;37.502;2024-02-26T13:01:17;12.93;;;7.47;;
32407;SDS011;18869;55.970;37.502;2024-02-26T13:03:46;15.07;;;8.60;;
32407;SDS011;18869;55.970;37.502;2024-02-26T13:06:13;16.63;;;8.17;;
32407;SDS011;18869;55.970;37.502;2024-02-26T13:08:40;13.60;;;7.73;;
32407;SDS011;18869;55.970;37.502;2024-02-26T13:11:08;14.93;;;8.73;;
32407;SDS011;18869;55.970;37.502;2024-02-26T13:13:35;11.47;;;8.23;;
32407;SDS011;18869;55.970;37.502;2024-02-26T13:16:02;15.30;;;8.67;;
32407;SDS011;18869;55.970;37.502;2024-02-26T13:18:31;15.13;;;9.10;;
32407;SDS011;18869;55.970;37.502;2024-02-26T13:21:09;12.00;;;7.97;;
32407;SDS011;18869;55.970;37.502;2024-02-26T13:23:36;12.40;;;7.83;;
32407;SDS011;18869;55.970;37.502;2024-02-26T13:26:04;18.40;;;8.33;;
32407;SDS011;18869;55.970;37.502;2024-02-26T13:28:31;11.80;;;8.07;;
32407;SDS011;18869;55.970;37.502;2024-02-26T13:30:58;11.53;;;7.63;;
32407;SDS011;18869;55.970;37.502;2024-02-26T13:33:27;18.43;;;8.00;;
32407;SDS011;18869;55.970;37.502;2024-02-26T13:35:55;16.50;;;7.90;;
32407;SDS011;18869;55.970;37.502;2024-02-26T13:38:22;12.03;;;7.70;;
32407;SDS011;18869;55.970;37.502;2024-02-26T13:40:49;16.67;;;8.07;;
32407;SDS011;18869;55.970;37.502;2024-02-26T13:43:16;16.07;;;7.97;;
32407;SDS011;18869;55.970;37.502;2024-02-26T13:45:44;20.70;;;8.63;;
32407;SDS011;18869;55.970;37.502;2024-02-26T13:48:11;11.17;;;8.17;;
32407;SDS011;18869;55.970;37.502;2024-02-26T13:50:38;15.03;;;7.60;;
32407;SDS011;18869;55.970;37.502;2024-02-26T13:53:05;11.10;;;7.77;;
32407;SDS011;18869;55.970;37.502;2024-02-26T13:55:32;9.13;;;7.40;;
32407;SDS011;18869;55.970;37.502;2024-02-26T13:57:59;13.17;;;6.77;;
32407;SDS011;18869;55.970;37.502;2024-02-26T14:00:27;9.70;;;7.33;;
32407;SDS011;18869;55.970;37.502;2024-02-26T14:02:55;10.20;;;6.63;;
32407;SDS011;18869;55.970;37.502;2024-02-26T14:05:22;8.33;;;7.30;;
32407;SDS011;18869;55.970;37.502;2024-02-26T14:07:48;10.27;;;6.40;;
32407;SDS011;18869;55.970;37.502;2024-02-26T14:10:15;10.53;;;6.57;;
32407;SDS011;18869;55.970;37.502;2024-02-26T14:12:43;9.07;;;6.47;;
32407;SDS011;18869;55.970;37.502;2024-02-26T14:15:09;13.70;;;8.13;;
32407;SDS011;18869;55.970;37.502;2024-02-26T14:17:37;15.87;;;8.67;;
32407;SDS011;18869;55.970;37.502;2024-02-26T14:20:05;13.47;;;7.47;;
32407;SDS011;18869;55.970;37.502;2024-02-26T14:22:34;10.07;;;7.33;;
32407;SDS011;18869;55.970;37.502;2024-02-26T14:25:02;9.63;;;7.03;;
32407;SDS011;18869;55.970;37.502;2024-02-26T14:27:29;10.63;;;6.60;;
32407;SDS011;18869;55.970;37.502;2024-02-26T14:29:56;9.63;;;7.00;;
32407;SDS011;18869;55.970;37.502;2024-02-26T14:32:23;12.60;;;7.17;;
32407;SDS011;18869;55.970;37.502;2024-02-26T14:34:50;8.60;;;6.80;;
32407;SDS011;18869;55.970;37.502;2024-02-26T14:37:17;9.70;;;6.30;;
32407;SDS011;18869;55.970;37.502;2024-02-26T14:39:44;10.73;;;6.63;;